Time;durP1;ratioP1;P1;durP2;ratioP2;P2;SDS_P1;SDS_P2;PMS_P1;PMS_P2;Temp;Humidity;BMP_temperature;BMP_pressure;BME280_temperature;BME280_humidity;BME280_pressure;Samples;Min_cycle;Max_cycle;Signal;HPM_P1;HPM_P2
2022/03/21 00:00:20;;;;;;;3.40;2.83;;;;;;;9.23;35.71;102974.75;4965497;28;98407;-83
2022/03/21 00:02:45;;;;;;;3.90;3.20;;;;;;;9.21;35.62;102970.88;4964721;28;97097;-84
2022/03/21 00:05:11;;;;;;;2.97;2.70;;;;;;;9.14;35.58;102966.31;4962010;28;96742;-83
2022/03/21 00:07:36;;;;;;;3.50;3.20;;;;;;;9.13;35.60;102964.00;4961515;28;97327;-83
2022/03/21 00:10:01;;;;;;;6.53;3.93;;;;;;;9.12;35.76;102976.94;4964937;28;96944;-82
2022/03/21 00:12:28;;;;;;;4.77;3.53;;;;;;;9.12;36.02;102976.94;4966526;28;96770;-83
2022/03/21 00:14:53;;;;;;;5.03;3.77;;;;;;;9.09;35.63;102997.00;4958664;28;97111;-83
2022/03/21 00:17:19;;;;;;;4.50;2.97;;;;;;;9.08;36.05;102970.75;4960349;28;97569;-84
2022/03/21 00:19:44;;;;;;;3.57;2.97;;;;;;;9.05;35.73;102977.88;4964251;28;96630;-83
2022/03/21 00:22:10;;;;;;;4.67;4.20;;;;;;;9.05;36.05;102971.59;4969365;28;96783;-82
2022/03/21 00:24:35;;;;;;;3.73;3.30;;;;;;;8.94;36.04;102958.09;4969508;28;96889;-83
2022/03/21 00:27:00;;;;;;;6.00;3.50;;;;;;;8.97;36.04;102976.47;4964343;28;98151;-83
2022/03/21 00:29:26;;;;;;;3.80;3.30;;;;;;;8.91;36.21;102972.66;4970088;28;96880;-83
2022/03/21 00:31:52;;;;;;;3.83;3.43;;;;;;;8.88;36.10;102970.78;4967550;28;96929;-83
2022/03/21 00:34:19;;;;;;;4.90;3.60;;;;;;;8.83;35.97;102978.72;4963928;28;98897;-82
2022/03/21 00:36:44;;;;;;;4.87;3.90;;;;;;;8.81;36.03;102973.66;4963105;28;97324;-83
2022/03/21 00:39:09;;;;;;;3.33;3.00;;;;;;;8.70;36.02;102970.34;4967225;28;97022;-83
2022/03/21 00:41:36;;;;;;;5.60;4.03;;;;;;;8.70;36.14;102975.84;4965543;28;97143;-83
2022/03/21 00:44:01;;;;;;;5.43;4.13;;;;;;;8.64;36.16;102983.03;4961361;28;97110;-83
2022/03/21 00:46:27;;;;;;;3.33;3.03;;;;;;;8.65;36.32;102975.56;4962163;28;98095;-83
2022/03/21 00:48:52;;;;;;;6.17;4.20;;;;;;;8.53;36.08;102979.72;4964121;28;97005;-83
2022/03/21 00:51:18;;;;;;;5.30;3.70;;;;;;;8.50;36.37;103029.16;4967891;28;96923;-82
2022/03/21 00:53:43;;;;;;;5.90;3.73;;;;;;;8.50;36.58;102979.78;4964436;28;97941;-84
2022/03/21 00:56:08;;;;;;;4.30;3.30;;;;;;;8.48;36.63;102987.66;4965552;28;96736;-83
2022/03/21 00:58:34;;;;;;;4.33;3.80;;;;;;;8.45;36.69;102985.75;4963315;28;96983;-83
2022/03/21 01:00:59;;;;;;;3.53;3.23;;;;;;;8.38;36.70;102980.41;4960898;28;96824;-83
2022/03/21 01:03:24;;;;;;;5.77;3.90;;;;;;;8.35;36.51;102982.00;4963695;28;96815;-83
2022/03/21 01:05:50;;;;;;;4.63;3.57;;;;;;;8.35;36.53;102984.75;4963522;28;98551;-83
2022/03/21 01:08:16;;;;;;;4.67;3.50;;;;;;;8.32;36.65;102977.38;4964288;28;97193;-83
2022/03/21 01:10:41;;;;;;;6.57;4.40;;;;;;;8.30;36.33;102990.72;4963598;28;98970;-83
2022/03/21 01:13:07;;;;;;;7.67;3.67;;;;;;;8.24;36.81;102986.88;4963704;28;99019;-83
2022/03/21 01:15:33;;;;;;;5.27;4.07;;;;;;;8.15;36.78;102981.16;4964561;28;97062;-83
2022/03/21 01:17:59;;;;;;;6.90;4.87;;;;;;;8.18;36.61;102988.56;4966269;28;96929;-83
2022/03/21 01:20:25;;;;;;;7.60;4.33;;;;;;;8.14;36.77;102985.09;4964877;28;96918;-82
2022/03/21 01:22:51;;;;;;;8.57;4.10;;;;;;;8.05;36.67;102988.41;4963862;28;97792;-83
2022/03/21 01:25:18;;;;;;;5.23;3.50;;;;;;;8.00;37.02;102979.84;4965758;28;96834;-83
2022/03/21 01:27:43;;;;;;;4.93;3.63;;;;;;;7.96;36.94;102976.41;4965977;28;97133;-83
2022/03/21 01:30:11;;;;;;;4.20;3.53;;;;;;;7.94;37.21;102979.56;4968126;28;96794;-83
2022/03/21 01:32:37;;;;;;;5.67;4.20;;;;;;;7.90;37.09;102983.56;4964989;28;98562;-83
2022/03/21 01:35:04;;;;;;;4.37;3.40;;;;;;;7.87;37.05;103001.59;4964763;28;97914;-83
2022/03/21 01:37:29;;;;;;;4.73;3.40;;;;;;;7.87;37.01;102984.38;4967438;28;96847;-83
2022/03/21 01:39:55;;;;;;;4.03;3.43;;;;;;;7.85;37.07;103008.69;4967436;28;96958;-83
2022/03/21 01:42:20;;;;;;;4.20;3.80;;;;;;;7.83;37.06;102991.91;4991618;28;99582;-83
2022/03/21 01:44:50;;;;;;;4.17;3.77;;;;;;;7.77;37.02;102986.13;4966833;28;97383;-83
2022/03/21 01:47:15;;;;;;;4.43;3.73;;;;;;;7.74;37.20;102991.63;4983475;28;96972;-83
2022/03/21 01:49:41;;;;;;;3.53;3.23;;;;;;;7.71;37.58;102987.75;4965702;28;96830;-83
2022/03/21 01:52:06;;;;;;;5.43;3.77;;;;;;;7.70;37.06;102969.78;4962693;28;98634;-83
2022/03/21 01:57:16;;;;;;;4.70;3.80;;;;;;;7.61;37.57;102974.22;4963534;28;96889;-83
2022/03/21 01:59:42;;;;;;;6.67;4.10;;;;;;;7.58;37.54;102984.84;4967445;28;96991;-84
2022/03/21 02:02:07;;;;;;;4.20;3.27;;;;;;;7.55;37.28;102969.25;4967195;28;97230;-82
2022/03/21 02:04:33;;;;;;;5.30;3.60;;;;;;;7.51;37.84;102975.97;4965263;28;99755;-83
2022/03/21 02:06:59;;;;;;;5.57;4.23;;;;;;;7.46;37.45;102979.16;4967547;28;97077;-83
2022/03/21 02:09:25;;;;;;;6.80;4.40;;;;;;;7.43;37.76;102969.81;4970561;28;97081;-83
2022/03/21 02:11:50;;;;;;;6.03;4.43;;;;;;;7.36;37.70;102982.84;4987454;28;98370;-84
2022/03/21 02:14:16;;;;;;;4.50;3.70;;;;;;;7.34;37.62;102980.50;4964290;28;96888;-83
2022/03/21 02:16:42;;;;;;;4.60;4.03;;;;;;;7.34;37.89;102979.72;4966089;28;96952;-82
2022/03/21 02:19:15;;;;;;;5.63;3.50;;;;;;;7.31;37.54;102989.56;4966590;28;96888;-83
2022/03/21 02:22:07;;;;;;;4.67;3.80;;;;;;;7.29;38.74;102970.03;4967309;28;97561;-83
2022/03/21 02:24:49;;;;;;;4.13;3.50;;;;;;;7.25;38.27;102977.50;4965295;28;100709;-83
2022/03/21 02:27:16;;;;;;;4.90;3.17;;;;;;;7.21;38.55;102968.56;4964991;28;97015;-83
2022/03/21 02:29:42;;;;;;;4.53;3.97;;;;;;;7.23;38.12;102968.91;4965927;28;97109;-83
2022/03/21 02:32:09;;;;;;;6.20;4.03;;;;;;;7.26;37.97;102978.28;4969043;28;97091;-83
2022/03/21 02:34:39;;;;;;;4.87;4.03;;;;;;;7.23;37.86;102970.91;4966435;28;97373;-83
2022/03/21 02:37:08;;;;;;;6.07;4.03;;;;;;;7.18;38.22;102966.66;4968093;28;96671;-83
2022/03/21 02:39:34;;;;;;;5.80;4.00;;;;;;;7.13;38.17;102964.38;4967053;28;98473;-83
2022/03/21 02:42:01;;;;;;;5.37;4.00;;;;;;;7.04;38.62;102982.47;4964626;28;97103;-83
2022/03/21 02:44:33;;;;;;;5.27;3.60;;;;;;;7.05;38.85;102970.34;4967260;28;99847;-84
2022/03/21 02:46:58;;;;;;;5.40;3.63;;;;;;;6.97;38.36;102966.91;4964118;28;96753;-82
2022/03/21 02:49:24;;;;;;;5.67;3.50;;;;;;;6.93;38.67;102970.88;4963980;28;96597;-83
2022/03/21 02:51:51;;;;;;;6.17;4.10;;;;;;;6.89;38.55;102965.47;4968171;28;98337;-82
2022/03/21 02:54:19;;;;;;;4.90;3.90;;;;;;;6.86;38.65;102981.94;4965102;28;96662;-82
2022/03/21 02:56:45;;;;;;;5.00;3.53;;;;;;;6.83;38.68;102975.31;4967775;28;96681;-83
2022/03/21 02:59:10;;;;;;;8.00;4.13;;;;;;;6.85;38.85;102986.63;4964896;28;96821;-82
2022/03/21 03:01:36;;;;;;;6.30;4.67;;;;;;;6.86;38.60;102985.44;4960764;28;99558;-83
2022/03/21 03:04:02;;;;;;;4.93;3.33;;;;;;;6.86;38.78;102979.19;4965462;28;98574;-82
2022/03/21 03:06:27;;;;;;;4.97;3.80;;;;;;;6.86;38.92;102984.69;4966734;28;97007;-82
2022/03/21 03:08:54;;;;;;;4.67;4.17;;;;;;;6.83;38.81;102986.25;4964154;28;97014;-83
2022/03/21 03:11:20;;;;;;;5.00;3.67;;;;;;;6.81;38.72;102994.13;4978044;28;97550;-82
2022/03/21 03:13:45;;;;;;;3.87;3.47;;;;;;;6.79;38.79;102978.09;4963122;28;97842;-82
2022/03/21 03:16:10;;;;;;;4.60;3.37;;;;;;;6.79;38.91;102971.84;4966408;28;97395;-82
2022/03/21 03:18:36;;;;;;;5.90;4.40;;;;;;;6.71;38.56;102973.88;4964643;28;97069;-82
2022/03/21 03:21:01;;;;;;;5.63;4.00;;;;;;;6.72;38.72;102969.97;4965080;28;99962;-82
2022/03/21 03:23:30;;;;;;;5.23;4.00;;;;;;;6.72;39.24;103000.06;4978455;28;97251;-83
2022/03/21 03:26:00;;;;;;;7.53;3.97;;;;;;;6.71;39.41;102973.09;4977845;28;97244;-83
2022/03/21 03:28:26;;;;;;;6.47;4.00;;;;;;;6.69;38.95;102973.53;4964032;28;98834;-83
2022/03/21 03:30:53;;;;;;;4.80;3.70;;;;;;;6.68;38.99;102976.69;4965306;28;97978;-82
2022/03/21 03:33:20;;;;;;;6.00;4.43;;;;;;;6.67;39.35;102989.56;4963486;28;96584;-82
2022/03/21 03:35:46;;;;;;;6.70;4.40;;;;;;;6.68;39.22;102979.41;4966221;28;97048;-83
2022/03/21 03:38:11;;;;;;;4.70;4.07;;;;;;;6.70;39.01;102987.97;4964587;28;96844;-83
2022/03/21 03:40:37;;;;;;;5.43;4.07;;;;;;;6.65;39.16;102988.41;4957752;28;98673;-83
2022/03/21 03:43:03;;;;;;;9.40;4.90;;;;;;;6.61;39.22;102999.41;4982091;28;103801;-82
2022/03/21 03:45:28;;;;;;;6.20;4.70;;;;;;;6.57;39.29;102981.50;4964421;28;96964;-83
2022/03/21 03:47:53;;;;;;;4.80;4.00;;;;;;;6.55;39.38;102997.53;4967346;28;108061;-82
2022/03/21 03:50:19;;;;;;;6.20;4.53;;;;;;;6.55;39.35;103011.97;4964382;28;100568;-82
2022/03/21 03:52:46;;;;;;;12.63;4.47;;;;;;;6.56;39.37;103004.53;4980347;28;99829;-82
2022/03/21 03:55:15;;;;;;;6.70;4.20;;;;;;;6.56;39.80;102991.66;4965007;28;96982;-82
2022/03/21 03:57:41;;;;;;;5.20;3.80;;;;;;;6.54;39.37;102994.00;4963549;28;96781;-82
2022/03/21 04:00:08;;;;;;;9.50;4.33;;;;;;;6.51;39.62;102988.59;4963170;28;97114;-83
2022/03/21 04:03:44;;;;;;;6.97;4.33;;;;;;;6.47;39.78;102999.56;4965164;28;101198;-82
2022/03/21 04:05:21;;;;;;;6.23;4.50;;;;;;;6.42;39.84;103007.44;4959643;28;97097;-82
2022/03/21 04:07:46;;;;;;;5.37;4.13;;;;;;;6.41;39.82;102994.94;4964540;28;97051;-82
2022/03/21 04:10:12;;;;;;;7.47;4.43;;;;;;;6.34;39.97;103005.94;4961553;28;99701;-83
2022/03/21 04:12:37;;;;;;;7.27;4.60;;;;;;;6.31;39.92;103018.44;4957604;28;98311;-83
2022/03/21 04:15:03;;;;;;;5.63;3.87;;;;;;;6.30;40.03;103000.50;4968333;28;97300;-81
2022/03/21 04:17:28;;;;;;;4.80;3.83;;;;;;;6.22;39.69;103003.72;4974047;28;96493;-83
2022/03/21 04:19:54;;;;;;;6.60;3.90;;;;;;;6.21;39.98;103007.63;4979771;28;98759;-82
2022/03/21 04:22:19;;;;;;;6.23;4.80;;;;;;;6.19;39.98;103004.50;4979190;28;113139;-83
2022/03/21 04:24:44;;;;;;;4.63;4.20;;;;;;;6.19;39.97;103016.22;4974027;28;96558;-83
2022/03/21 04:27:10;;;;;;;6.13;4.23;;;;;;;6.17;39.91;103001.41;4977390;28;96778;-83
2022/03/21 04:29:35;;;;;;;7.73;4.67;;;;;;;6.10;40.15;103007.72;4970632;28;97656;-84
2022/03/21 04:32:01;;;;;;;4.90;4.00;;;;;;;6.09;40.15;103030.78;4976534;28;99491;-84
2022/03/21 04:34:27;;;;;;;7.53;4.57;;;;;;;6.11;40.13;103005.75;4969686;28;96719;-83
2022/03/21 04:36:52;;;;;;;5.90;3.97;;;;;;;6.05;40.54;103016.34;4964979;28;97017;-83
2022/03/21 04:39:18;;;;;;;5.67;4.27;;;;;;;6.05;40.57;103011.66;4964838;28;98518;-82
2022/03/21 04:41:43;;;;;;;6.27;4.30;;;;;;;6.07;40.87;103026.88;4965759;28;97682;-83
2022/03/21 04:44:08;;;;;;;6.77;4.63;;;;;;;6.00;40.60;103012.09;4965108;28;97051;-84
2022/03/21 04:46:34;;;;;;;6.67;4.43;;;;;;;6.04;40.61;103021.06;4966844;28;96863;-82
2022/03/21 04:48:59;;;;;;;8.07;4.57;;;;;;;6.03;40.66;103015.97;4964307;28;97866;-84
2022/03/21 04:51:25;;;;;;;5.23;3.87;;;;;;;5.98;40.48;103010.94;4965889;28;97434;-83
2022/03/21 04:53:50;;;;;;;7.70;4.70;;;;;;;6.01;40.76;103016.38;4959517;28;97581;-84
2022/03/21 04:56:16;;;;;;;6.73;4.27;;;;;;;6.02;40.77;103023.41;4963923;28;96843;-84
2022/03/21 04:58:42;;;;;;;4.83;3.97;;;;;;;6.02;40.87;103028.88;4962285;28;97110;-83
2022/03/21 05:01:07;;;;;;;6.07;4.50;;;;;;;6.02;40.57;103056.19;4962860;28;97648;-83
2022/03/21 05:03:32;;;;;;;7.20;4.50;;;;;;;6.05;40.87;103025.31;4964969;28;96941;-82
2022/03/21 05:05:58;;;;;;;7.60;4.70;;;;;;;6.04;40.58;103015.59;4966264;28;97109;-83
2022/03/21 05:08:24;;;;;;;4.60;3.90;;;;;;;6.03;40.75;103033.16;4964459;28;97685;-83
2022/03/21 05:10:49;;;;;;;5.90;4.33;;;;;;;6.02;40.73;103023.41;4965779;28;99316;-83
2022/03/21 05:13:15;;;;;;;8.40;4.83;;;;;;;6.03;40.77;103018.69;4960822;28;97266;-82
2022/03/21 05:15:57;;;;;;;7.37;4.30;;;;;;;6.01;41.06;103024.56;4962783;28;97379;-83
2022/03/21 05:18:23;;;;;;;8.60;4.47;;;;;;;5.96;40.91;103018.78;4906749;28;100692;-83
2022/03/21 05:20:48;;;;;;;6.50;5.07;;;;;;;5.97;40.72;103026.56;4962085;28;97113;-83
2022/03/21 05:31:26;;;;;;;6.40;4.83;;;;;;;5.94;40.88;103019.16;4961272;28;101198;-82
2022/03/21 05:36:35;;;;;;;6.33;4.10;;;;;;;5.95;40.69;103039.84;4965047;28;96710;-82
2022/03/21 05:39:01;;;;;;;7.40;4.87;;;;;;;5.95;40.99;103023.47;4965275;28;96745;-84
2022/03/21 05:41:27;;;;;;;5.43;4.53;;;;;;;5.90;40.95;103032.06;4961445;28;98380;-82
2022/03/21 05:43:52;;;;;;;6.93;4.30;;;;;;;5.94;40.98;103032.81;4954651;28;97143;-83
2022/03/21 05:46:18;;;;;;;7.33;4.30;;;;;;;5.94;41.16;103030.09;4960098;28;97007;-82
2022/03/21 05:48:59;;;;;;;7.93;5.27;;;;;;;5.99;40.94;103037.88;4961298;28;98776;-82
2022/03/21 05:51:34;;;;;;;7.50;4.67;;;;;;;6.02;41.24;103026.13;4962325;28;96981;-82
2022/03/21 05:54:02;;;;;;;5.83;4.53;;;;;;;6.04;41.13;103031.19;4960683;28;96910;-83
2022/03/21 05:56:29;;;;;;;6.47;5.00;;;;;;;6.05;41.01;103033.50;4961889;28;97311;-82
2022/03/21 05:58:55;;;;;;;9.30;5.63;;;;;;;6.07;41.22;103030.41;4962856;28;99274;-82
2022/03/21 06:01:22;;;;;;;10.63;4.97;;;;;;;6.10;40.93;103028.78;4963423;28;97373;-82
2022/03/21 06:03:52;;;;;;;5.57;4.53;;;;;;;6.14;40.98;103037.75;4957299;28;97209;-82
2022/03/21 06:06:18;;;;;;;6.10;5.07;;;;;;;6.16;41.05;103040.88;4959321;28;96997;-82
2022/03/21 06:08:44;;;;;;;6.97;4.97;;;;;;;6.17;41.23;103026.00;4964229;28;97744;-82
2022/03/21 06:11:12;;;;;;;8.70;5.10;;;;;;;6.20;41.24;103031.47;4958156;28;96962;-82
2022/03/21 06:13:40;;;;;;;8.17;5.90;;;;;;;6.22;41.09;103048.22;4987538;28;97001;-83
2022/03/21 06:16:06;;;;;;;8.50;4.77;;;;;;;6.28;40.74;103037.63;4962091;28;97085;-83
2022/03/21 06:18:34;;;;;;;7.80;4.90;;;;;;;6.34;40.78;103044.22;4964961;28;99817;-82
2022/03/21 06:21:00;;;;;;;8.70;5.53;;;;;;;6.36;40.90;103053.56;4964440;28;101572;-82
2022/03/21 06:23:26;;;;;;;6.87;5.20;;;;;;;6.39;41.02;103062.91;4968356;28;97021;-82
2022/03/21 06:25:53;;;;;;;7.13;4.70;;;;;;;6.41;40.61;103053.13;4967413;28;97042;-83
2022/03/21 06:28:20;;;;;;;10.80;5.40;;;;;;;6.47;40.92;103058.94;4965465;28;96856;-83
2022/03/21 06:30:46;;;;;;;10.30;6.00;;;;;;;6.49;41.03;103062.81;4968844;28;97462;-82
2022/03/21 06:33:11;;;;;;;8.40;5.40;;;;;;;6.57;41.04;103066.28;4964138;28;97098;-82
2022/03/21 06:35:37;;;;;;;9.90;6.37;;;;;;;6.59;41.10;103067.44;4964114;28;96811;-82
2022/03/21 06:38:02;;;;;;;9.33;5.53;;;;;;;6.62;40.76;103060.34;4964427;28;97329;-83
2022/03/21 06:40:29;;;;;;;10.50;5.20;;;;;;;6.68;41.09;103064.97;4963668;28;97011;-83
2022/03/21 06:42:55;;;;;;;9.07;5.60;;;;;;;6.67;40.73;103071.63;4965802;28;98811;-82
2022/03/21 06:45:21;;;;;;;7.50;5.20;;;;;;;6.72;40.93;103081.38;4966194;28;97174;-83
2022/03/21 06:47:47;;;;;;;9.77;6.00;;;;;;;6.81;40.75;103089.88;4956183;28;99829;-82
2022/03/21 06:50:12;;;;;;;9.53;5.80;;;;;;;6.88;40.94;103083.53;4988498;28;97035;-83
2022/03/21 06:52:39;;;;;;;6.60;4.87;;;;;;;6.92;40.55;103074.13;4965032;28;96973;-83
2022/03/21 06:55:06;;;;;;;9.80;5.67;;;;;;;6.99;40.85;103086.94;4962832;28;96786;-82
2022/03/21 06:57:32;;;;;;;7.67;5.70;;;;;;;7.05;40.88;103088.81;4963295;28;97153;-83
2022/03/21 06:59:57;;;;;;;8.50;5.90;;;;;;;7.14;40.52;103075.41;4965771;28;98572;-83
2022/03/21 07:02:23;;;;;;;8.63;5.30;;;;;;;7.20;40.65;103082.00;4966430;28;96796;-82
2022/03/21 07:04:49;;;;;;;7.50;5.23;;;;;;;7.33;40.94;103072.06;4967048;28;96825;-82
2022/03/21 07:07:14;;;;;;;6.70;4.93;;;;;;;7.43;40.88;103076.63;4958576;28;98965;-83
2022/03/21 07:09:40;;;;;;;7.97;5.40;;;;;;;7.51;40.61;103086.28;4964096;28;98941;-83
2022/03/21 07:12:06;;;;;;;7.27;5.40;;;;;;;7.61;40.50;103108.47;4962585;28;97328;-82
2022/03/21 07:14:31;;;;;;;8.63;5.10;;;;;;;7.62;40.58;103069.72;4964771;28;96888;-83
2022/03/21 07:16:56;;;;;;;7.23;5.47;;;;;;;7.72;40.33;103081.69;4963313;28;96920;-82
2022/03/21 07:19:22;;;;;;;9.90;6.17;;;;;;;7.75;40.43;103084.41;4965692;28;97566;-83
2022/03/21 07:21:48;;;;;;;13.07;6.40;;;;;;;7.83;40.66;103087.81;4956998;28;96796;-82
2022/03/21 07:24:14;;;;;;;7.27;5.00;;;;;;;7.90;40.23;103098.69;4962662;28;96526;-82
2022/03/21 07:26:40;;;;;;;9.60;6.47;;;;;;;7.93;40.25;103090.38;4962177;28;96884;-83
2022/03/21 07:29:06;;;;;;;7.80;5.87;;;;;;;8.01;40.30;103096.56;4969295;28;97627;-83
2022/03/21 07:31:33;;;;;;;10.70;6.03;;;;;;;8.07;40.42;103092.94;4964137;28;97191;-82
2022/03/21 07:33:58;;;;;;;8.97;6.10;;;;;;;8.14;40.35;103094.78;4965005;28;96957;-82
2022/03/21 07:36:23;;;;;;;7.73;5.80;;;;;;;8.21;40.26;103109.16;4958684;28;99227;-82
2022/03/21 07:38:49;;;;;;;7.37;5.40;;;;;;;8.29;40.24;103098.88;4965672;28;96987;-83
2022/03/21 07:41:14;;;;;;;9.00;5.47;;;;;;;8.38;40.10;103096.38;4955717;28;96952;-82
2022/03/21 07:43:40;;;;;;;7.83;5.77;;;;;;;8.48;40.22;103100.13;4964068;28;96863;-83
2022/03/21 07:48:51;;;;;;;9.77;5.90;;;;;;;8.66;40.04;103103.34;4960133;28;97389;-83
2022/03/21 07:51:17;;;;;;;6.80;5.60;;;;;;;8.77;40.09;103109.44;4964857;28;96940;-82
2022/03/21 07:53:42;;;;;;;7.47;5.37;;;;;;;8.85;39.88;103114.38;4963765;28;96893;-82
2022/03/21 07:56:08;;;;;;;7.30;5.57;;;;;;;8.96;39.83;103106.69;4958212;28;97280;-83
2022/03/21 07:58:35;;;;;;;8.50;5.23;;;;;;;9.09;39.74;103108.84;4959056;28;98559;-83
2022/03/21 08:01:01;;;;;;;7.67;5.43;;;;;;;9.17;39.77;103116.53;4968304;28;97089;-83
2022/03/21 08:03:28;;;;;;;14.13;5.63;;;;;;;9.31;39.77;103118.97;4964061;28;96574;-83
2022/03/21 08:05:53;;;;;;;11.47;6.43;;;;;;;9.41;39.47;103106.22;4966833;28;96908;-83
2022/03/21 08:08:20;;;;;;;8.93;5.93;;;;;;;9.52;39.29;103115.78;4964830;28;96868;-82
2022/03/21 08:10:46;;;;;;;6.50;5.13;;;;;;;9.57;39.36;103100.75;4970141;28;96765;-83
2022/03/21 08:13:16;;;;;;;10.60;6.47;;;;;;;9.67;39.21;103121.75;4966827;28;96904;-82
2022/03/21 08:15:42;;;;;;;8.27;5.90;;;;;;;9.72;39.04;103107.50;4965657;28;97544;-82
2022/03/21 08:18:08;;;;;;;9.10;6.00;;;;;;;9.86;39.09;103126.44;4965280;28;99950;-82
2022/03/21 08:20:35;;;;;;;7.07;5.60;;;;;;;9.96;39.23;103128.16;4966709;28;96764;-82
2022/03/21 08:23:03;;;;;;;7.40;5.60;;;;;;;10.06;39.10;103107.91;4962047;28;97489;-82
2022/03/21 08:25:29;;;;;;;9.20;6.60;;;;;;;10.12;38.98;103095.22;4960307;28;96860;-82
2022/03/21 08:27:54;;;;;;;12.23;6.53;;;;;;;10.31;38.95;103099.09;4965697;28;98887;-82
2022/03/21 08:30:20;;;;;;;9.07;5.90;;;;;;;10.40;38.90;103102.78;4959961;28;96993;-82
2022/03/21 08:32:46;;;;;;;9.57;5.60;;;;;;;10.47;39.04;103138.38;4967058;28;97134;-82
2022/03/21 08:35:12;;;;;;;9.30;5.30;;;;;;;10.57;38.70;103111.81;4962774;28;96987;-82
2022/03/21 08:37:38;;;;;;;9.37;6.20;;;;;;;10.72;38.89;103109.44;4964317;28;96680;-83
2022/03/21 08:40:04;;;;;;;7.40;6.00;;;;;;;10.91;38.71;103106.56;4964706;28;97441;-82
2022/03/21 08:42:30;;;;;;;7.13;5.90;;;;;;;11.05;38.62;103110.91;4966506;28;96927;-82
2022/03/21 08:44:56;;;;;;;8.10;5.70;;;;;;;11.23;38.22;103094.63;4955770;28;99517;-82
2022/03/21 08:47:23;;;;;;;8.03;5.60;;;;;;;11.44;38.42;103105.06;4963738;28;99854;-83
2022/03/21 08:49:49;;;;;;;7.40;6.33;;;;;;;11.71;38.34;103099.94;4965321;28;96904;-83
2022/03/21 08:52:14;;;;;;;8.77;6.00;;;;;;;11.95;37.79;103092.88;4969478;28;97261;-83
2022/03/21 08:54:39;;;;;;;7.40;5.70;;;;;;;12.21;37.88;103098.38;4962862;28;97732;-82
2022/03/21 08:57:05;;;;;;;11.10;6.47;;;;;;;12.47;37.48;103106.16;4967370;28;96844;-82
2022/03/21 08:59:31;;;;;;;12.03;6.27;;;;;;;12.68;37.24;103104.66;4966180;28;96841;-83
2022/03/21 09:01:57;;;;;;;11.10;5.60;;;;;;;12.84;37.10;103104.50;4959388;28;97336;-82
2022/03/21 09:04:22;;;;;;;8.03;6.10;;;;;;;13.03;37.02;103103.41;4963403;28;98260;-82
2022/03/21 09:06:48;;;;;;;7.60;5.60;;;;;;;13.22;36.96;103107.88;4967223;28;97015;-82
2022/03/21 09:09:15;;;;;;;10.27;6.67;;;;;;;13.46;36.76;103094.34;4960369;28;96671;-82
2022/03/21 09:11:41;;;;;;;9.33;5.70;;;;;;;13.71;36.76;103094.16;4968643;28;97041;-83
2022/03/21 09:14:09;;;;;;;7.70;5.50;;;;;;;13.90;36.77;103093.00;4965681;28;96815;-82
2022/03/21 09:16:36;;;;;;;6.80;6.10;;;;;;;14.07;36.53;103093.50;4966371;28;97655;-83
2022/03/21 09:19:02;;;;;;;7.43;5.57;;;;;;;14.19;36.59;103100.94;4968033;28;97385;-82
2022/03/21 09:21:28;;;;;;;8.53;6.00;;;;;;;14.28;36.33;103087.88;4963669;28;96908;-83
2022/03/21 09:23:53;;;;;;;9.37;5.97;;;;;;;14.43;36.35;103099.19;4978364;28;96973;-84
2022/03/21 09:26:22;;;;;;;8.03;6.17;;;;;;;14.52;36.16;103093.66;4966988;28;98494;-82
2022/03/21 09:28:49;;;;;;;7.30;6.37;;;;;;;14.58;35.82;103108.44;4965427;28;96889;-80
2022/03/21 09:31:15;;;;;;;6.80;6.10;;;;;;;14.66;35.81;103100.56;4966978;28;96857;-81
2022/03/21 09:33:41;;;;;;;8.77;6.13;;;;;;;14.71;35.82;103103.50;4964371;28;97616;-82
2022/03/21 09:36:07;;;;;;;8.90;6.40;;;;;;;14.80;35.95;103095.19;4964749;28;97984;-82
2022/03/21 09:38:34;;;;;;;8.60;6.03;;;;;;;14.81;35.66;103110.56;4962919;28;97075;-82
2022/03/21 09:41:01;;;;;;;7.20;5.60;;;;;;;14.87;35.65;103096.88;4968169;28;96882;-83
2022/03/21 09:43:30;;;;;;;9.07;6.87;;;;;;;14.94;35.27;103102.88;4954192;28;98937;-82
2022/03/21 09:45:57;;;;;;;8.83;5.93;;;;;;;15.00;35.70;103100.25;4960211;28;97757;-82
2022/03/21 09:48:26;;;;;;;7.37;6.03;;;;;;;15.09;35.54;103094.72;4963396;28;96887;-85
2022/03/21 09:50:52;;;;;;;8.20;6.37;;;;;;;15.13;35.40;103095.31;4967372;28;97268;-83
2022/03/21 09:53:19;;;;;;;8.70;6.90;;;;;;;15.12;35.15;103087.44;4968355;28;97522;-83
2022/03/21 09:55:46;;;;;;;7.60;6.47;;;;;;;15.14;35.32;103101.63;4962378;28;96590;-84
2022/03/21 09:58:12;;;;;;;10.67;7.40;;;;;;;15.18;35.33;103093.94;4967742;28;96863;-81
2022/03/21 10:00:42;;;;;;;7.87;6.13;;;;;;;15.19;34.51;103087.13;4965754;28;96896;-83
2022/03/21 10:03:07;;;;;;;9.90;6.47;;;;;;;15.22;35.03;103092.53;4967857;28;97839;-82
2022/03/21 10:05:40;;;;;;;6.43;5.53;;;;;;;15.27;34.66;103077.25;4962970;28;97144;-83
2022/03/21 10:08:20;;;;;;;7.97;6.73;;;;;;;15.29;33.22;103081.09;4986840;28;96914;-82
2022/03/21 10:10:59;;;;;;;8.83;6.40;;;;;;;15.27;33.69;103077.25;4969225;28;96978;-82
2022/03/21 10:13:27;;;;;;;9.17;6.17;;;;;;;15.28;34.81;103073.25;4967775;28;97003;-83
2022/03/21 10:16:11;;;;;;;7.37;6.20;;;;;;;15.34;33.63;103077.69;4966095;28;96806;-82
2022/03/21 10:18:38;;;;;;;8.87;6.70;;;;;;;15.34;34.60;103074.94;4970918;28;96799;-83
2022/03/21 10:21:15;;;;;;;8.33;6.70;;;;;;;15.38;33.02;103077.53;4969652;28;96949;-82
2022/03/21 10:23:41;;;;;;;8.43;6.50;;;;;;;15.46;34.79;103070.47;4969115;28;102440;-82
2022/03/21 10:26:30;;;;;;;9.00;6.20;;;;;;;15.51;32.79;103076.13;4964613;28;98607;-82
2022/03/21 10:28:58;;;;;;;8.83;6.63;;;;;;;15.54;34.21;103068.88;4967793;28;97105;-81
2022/03/21 10:31:44;;;;;;;7.80;6.50;;;;;;;15.55;33.22;103071.19;4968186;28;99562;-82
2022/03/21 10:34:21;;;;;;;7.37;6.47;;;;;;;15.57;33.48;103063.16;4960795;28;99717;-81
2022/03/21 10:37:07;;;;;;;8.90;6.70;;;;;;;15.54;33.19;103063.34;4967850;28;97424;-82
2022/03/21 10:39:41;;;;;;;7.43;6.60;;;;;;;15.46;32.93;103060.13;4976334;28;97116;-83
2022/03/21 10:42:09;;;;;;;10.83;6.10;;;;;;;15.48;34.25;103065.97;4967388;28;97424;-82
2022/03/21 10:44:36;;;;;;;8.63;6.50;;;;;;;15.60;34.44;103067.78;4966953;28;97865;-82
2022/03/21 10:47:04;;;;;;;7.53;6.20;;;;;;;15.70;34.03;103063.72;4962154;28;97422;-82
2022/03/21 10:49:32;;;;;;;9.90;7.60;;;;;;;15.77;33.73;103059.81;4967604;28;97219;-82
2022/03/21 10:51:59;;;;;;;11.60;8.20;;;;;;;15.83;34.13;103057.97;4971117;28;97166;-82
2022/03/21 10:54:38;;;;;;;9.03;6.87;;;;;;;15.89;32.52;103061.63;4964747;28;97007;-82
2022/03/21 10:57:04;;;;;;;10.77;7.60;;;;;;;15.93;33.66;103050.34;4964700;28;97919;-81
2022/03/21 10:59:31;;;;;;;10.40;7.20;;;;;;;15.99;33.71;103054.03;4965484;28;96779;-83
2022/03/21 11:02:14;;;;;;;10.90;6.40;;;;;;;16.15;32.62;103054.38;4970062;28;97033;-82
2022/03/21 11:04:43;;;;;;;9.33;7.17;;;;;;;16.29;33.48;103052.91;4966559;28;99693;-82
2022/03/21 11:07:12;;;;;;;9.57;7.07;;;;;;;16.43;33.37;103041.81;4964273;28;98389;-82
2022/03/21 11:09:39;;;;;;;6.80;6.10;;;;;;;16.60;33.35;103042.16;4968267;28;97349;-82
2022/03/21 11:12:07;;;;;;;8.43;7.23;;;;;;;16.67;33.11;103043.81;4968037;28;97368;-82
2022/03/21 11:14:38;;;;;;;7.27;6.30;;;;;;;16.79;32.65;103043.56;4968121;28;97916;-83
2022/03/21 11:17:05;;;;;;;8.80;6.90;;;;;;;16.93;32.58;103040.00;4970133;28;98522;-83
2022/03/21 11:19:31;;;;;;;10.37;7.77;;;;;;;16.95;32.28;103047.91;4973889;28;96940;-81
2022/03/21 11:21:56;;;;;;;9.70;7.50;;;;;;;17.09;32.42;103038.75;4978345;28;97355;-82
2022/03/21 11:24:22;;;;;;;8.50;7.30;;;;;;;17.33;32.61;103041.44;4962141;28;97780;-82
2022/03/21 11:27:16;;;;;;;8.73;6.90;;;;;;;17.59;31.50;103043.16;4963362;28;97021;-83
2022/03/21 11:29:54;;;;;;;9.27;7.07;;;;;;;17.68;32.47;103031.13;4937006;28;97231;-83
2022/03/21 11:32:38;;;;;;;7.83;6.63;;;;;;;17.77;31.08;103037.34;4974753;28;96865;-83
2022/03/21 11:35:09;;;;;;;8.17;7.30;;;;;;;17.87;31.54;103041.53;4961441;28;100991;-83
2022/03/21 11:37:34;;;;;;;7.97;6.70;;;;;;;18.03;32.08;103059.72;4963667;28;97696;-83
2022/03/21 11:40:27;;;;;;;7.50;6.50;;;;;;;18.14;30.26;103045.19;4960965;28;97107;-82
2022/03/21 11:42:56;;;;;;;7.30;6.20;;;;;;;18.33;31.74;103047.19;4965197;28;98407;-84
2022/03/21 11:45:27;;;;;;;12.80;6.47;;;;;;;18.60;31.47;103048.81;4965464;28;97132;-83